sensor_id;sensor_type;location;lat;lon;timestamp;pressure;altitude;pressure_sealevel;temperature
61703;BMP280;47622;47.726;3.298;2023-02-28T00:01:31;99700.69;;;-0.76
61703;BMP280;47622;47.726;3.298;2023-02-28T00:03:57;99692.38;;;-0.79
61703;BMP280;47622;47.726;3.298;2023-02-28T00:06:24;99701.22;;;-0.61
61703;BMP280;47622;47.726;3.298;2023-02-28T00:08:50;99700.25;;;-0.67
61703;BMP280;47622;47.726;3.298;2023-02-28T00:11:16;99699.03;;;-0.64
61703;BMP280;47622;47.726;3.298;2023-02-28T00:13:44;99705.00;;;-0.70
61703;BMP280;47622;47.726;3.298;2023-02-28T00:16:14;99706.59;;;-0.63
61703;BMP280;47622;47.726;3.298;2023-02-28T00:18:40;99699.09;;;-0.77
61703;BMP280;47622;47.726;3.298;2023-02-28T00:21:06;99694.78;;;-0.84
61703;BMP280;47622;47.726;3.298;2023-02-28T00:23:32;99700.28;;;-0.73
61703;BMP280;47622;47.726;3.298;2023-02-28T00:25:58;99703.88;;;-0.74
61703;BMP280;47622;47.726;3.298;2023-02-28T00:28:24;99690.47;;;-0.96
61703;BMP280;47622;47.726;3.298;2023-02-28T00:30:51;99692.25;;;-0.97
61703;BMP280;47622;47.726;3.298;2023-02-28T00:33:17;99701.56;;;-0.96
61703;BMP280;47622;47.726;3.298;2023-02-28T00:35:43;99699.34;;;-0.92
61703;BMP280;47622;47.726;3.298;2023-02-28T00:38:11;99704.66;;;-0.81
61703;BMP280;47622;47.726;3.298;2023-02-28T00:40:37;99707.88;;;-0.92
61703;BMP280;47622;47.726;3.298;2023-02-28T00:43:03;99700.50;;;-0.82
61703;BMP280;47622;47.726;3.298;2023-02-28T00:45:29;99711.25;;;-0.98
61703;BMP280;47622;47.726;3.298;2023-02-28T00:47:55;99712.63;;;-0.89
61703;BMP280;47622;47.726;3.298;2023-02-28T00:50:20;99711.78;;;-0.83
61703;BMP280;47622;47.726;3.298;2023-02-28T00:52:47;99713.78;;;-0.85
61703;BMP280;47622;47.726;3.298;2023-02-28T00:55:13;99701.94;;;-0.92
61703;BMP280;47622;47.726;3.298;2023-02-28T00:57:38;99715.00;;;-0.94
61703;BMP280;47622;47.726;3.298;2023-02-28T01:00:06;99709.44;;;-0.91
61703;BMP280;47622;47.726;3.298;2023-02-28T01:02:32;99712.63;;;-1.02
61703;BMP280;47622;47.726;3.298;2023-02-28T01:04:57;99710.28;;;-1.10
61703;BMP280;47622;47.726;3.298;2023-02-28T01:07:23;99714.44;;;-1.09
61703;BMP280;47622;47.726;3.298;2023-02-28T01:09:49;99718.97;;;-0.98
61703;BMP280;47622;47.726;3.298;2023-02-28T01:12:15;99717.78;;;-1.02
61703;BMP280;47622;47.726;3.298;2023-02-28T01:14:41;99717.63;;;-1.20
61703;BMP280;47622;47.726;3.298;2023-02-28T01:17:07;99724.16;;;-1.24
61703;BMP280;47622;47.726;3.298;2023-02-28T01:19:33;99724.53;;;-1.14
61703;BMP280;47622;47.726;3.298;2023-02-28T01:22:03;99732.88;;;-1.25
61703;BMP280;47622;47.726;3.298;2023-02-28T01:24:29;99734.88;;;-1.27
61703;BMP280;47622;47.726;3.298;2023-02-28T01:26:55;99731.69;;;-1.29
61703;BMP280;47622;47.726;3.298;2023-02-28T01:29:21;99730.13;;;-1.31
61703;BMP280;47622;47.726;3.298;2023-02-28T01:31:46;99729.31;;;-1.38
61703;BMP280;47622;47.726;3.298;2023-02-28T01:34:12;99726.53;;;-1.36
61703;BMP280;47622;47.726;3.298;2023-02-28T01:36:37;99730.50;;;-1.34
61703;BMP280;47622;47.726;3.298;2023-02-28T01:39:03;99736.22;;;-1.45
61703;BMP280;47622;47.726;3.298;2023-02-28T01:41:32;99738.19;;;-1.40
61703;BMP280;47622;47.726;3.298;2023-02-28T01:44:05;99733.69;;;-1.32
61703;BMP280;47622;47.726;3.298;2023-02-28T01:46:35;99736.81;;;-1.36
61703;BMP280;47622;47.726;3.298;2023-02-28T01:49:15;99727.53;;;-1.44
61703;BMP280;47622;47.726;3.298;2023-02-28T01:51:44;99736.03;;;-1.43
61703;BMP280;47622;47.726;3.298;2023-02-28T01:54:21;99729.72;;;-1.54
61703;BMP280;47622;47.726;3.298;2023-02-28T01:56:56;99722.19;;;-1.62
61703;BMP280;47622;47.726;3.298;2023-02-28T01:59:29;99731.69;;;-1.56
61703;BMP280;47622;47.726;3.298;2023-02-28T02:01:56;99728.09;;;-1.55
61703;BMP280;47622;47.726;3.298;2023-02-28T02:04:23;99725.38;;;-1.53
61703;BMP280;47622;47.726;3.298;2023-02-28T02:06:51;99719.63;;;-1.62
61703;BMP280;47622;47.726;3.298;2023-02-28T02:09:17;99729.13;;;-1.69
61703;BMP280;47622;47.726;3.298;2023-02-28T02:11:44;99732.84;;;-1.65
61703;BMP280;47622;47.726;3.298;2023-02-28T02:14:26;99722.38;;;-1.57
61703;BMP280;47622;47.726;3.298;2023-02-28T02:17:27;99730.91;;;-1.63
61703;BMP280;47622;47.726;3.298;2023-02-28T02:27:59;99735.63;;;-1.73
61703;BMP280;47622;47.726;3.298;2023-02-28T02:43:53;99728.09;;;-1.82
61703;BMP280;47622;47.726;3.298;2023-02-28T02:46:37;99728.09;;;-1.82
61703;BMP280;47622;47.726;3.298;2023-02-28T02:49:07;99721.59;;;-1.84
61703;BMP280;47622;47.726;3.298;2023-02-28T02:51:35;99718.78;;;-1.96
61703;BMP280;47622;47.726;3.298;2023-02-28T02:54:36;99714.84;;;-1.92
61703;BMP280;47622;47.726;3.298;2023-02-28T02:57:09;99723.38;;;-1.85
61703;BMP280;47622;47.726;3.298;2023-02-28T02:59:39;99712.66;;;-1.95
61703;BMP280;47622;47.726;3.298;2023-02-28T03:02:07;99722.38;;;-1.84
61703;BMP280;47622;47.726;3.298;2023-02-28T03:04:43;99721.94;;;-2.00
61703;BMP280;47622;47.726;3.298;2023-02-28T03:07:10;99715.41;;;-2.03
61703;BMP280;47622;47.726;3.298;2023-02-28T03:09:35;99721.34;;;-1.89
61703;BMP280;47622;47.726;3.298;2023-02-28T03:12:01;99724.13;;;-1.91
61703;BMP280;47622;47.726;3.298;2023-02-28T03:20:04;99725.31;;;-1.87
61703;BMP280;47622;47.726;3.298;2023-02-28T03:22:46;99714.44;;;-1.89
61703;BMP280;47622;47.726;3.298;2023-02-28T03:30:54;99719.31;;;-2.20
61703;BMP280;47622;47.726;3.298;2023-02-28T03:33:30;99717.38;;;-2.18
61703;BMP280;47622;47.726;3.298;2023-02-28T03:36:16;99712.19;;;-2.25
61703;BMP280;47622;47.726;3.298;2023-02-28T03:41:22;99716.56;;;-2.25
61703;BMP280;47622;47.726;3.298;2023-02-28T03:43:55;99722.47;;;-2.25
61703;BMP280;47622;47.726;3.298;2023-02-28T03:46:24;99720.84;;;-2.33
61703;BMP280;47622;47.726;3.298;2023-02-28T03:49:01;99714.97;;;-2.26
61703;BMP280;47622;47.726;3.298;2023-02-28T03:51:29;99716.56;;;-2.19
61703;BMP280;47622;47.726;3.298;2023-02-28T03:53:59;99720.53;;;-2.16
61703;BMP280;47622;47.726;3.298;2023-02-28T03:56:37;99714.16;;;-2.34
61703;BMP280;47622;47.726;3.298;2023-02-28T04:01:39;99723.78;;;-2.42
61703;BMP280;47622;47.726;3.298;2023-02-28T04:04:07;99728.94;;;-2.36
61703;BMP280;47622;47.726;3.298;2023-02-28T04:06:34;99724.78;;;-2.43
61703;BMP280;47622;47.726;3.298;2023-02-28T04:09:00;99722.81;;;-2.35
61703;BMP280;47622;47.726;3.298;2023-02-28T04:14:01;99722.22;;;-2.37
61703;BMP280;47622;47.726;3.298;2023-02-28T04:16:28;99718.88;;;-2.37
61703;BMP280;47622;47.726;3.298;2023-02-28T04:18:53;99722.44;;;-2.31
61703;BMP280;47622;47.726;3.298;2023-02-28T04:21:19;99725.63;;;-2.29
61703;BMP280;47622;47.726;3.298;2023-02-28T04:23:47;99718.28;;;-2.33
61703;BMP280;47622;47.726;3.298;2023-02-28T04:26:13;99720.06;;;-2.40
61703;BMP280;47622;47.726;3.298;2023-02-28T04:28:38;99729.16;;;-2.30
61703;BMP280;47622;47.726;3.298;2023-02-28T04:31:05;99717.84;;;-2.49
61703;BMP280;47622;47.726;3.298;2023-02-28T04:33:32;99729.50;;;-2.40
61703;BMP280;47622;47.726;3.298;2023-02-28T04:36:03;99725.56;;;-2.43
61703;BMP280;47622;47.726;3.298;2023-02-28T04:38:32;99732.66;;;-2.45
61703;BMP280;47622;47.726;3.298;2023-02-28T04:40:58;99730.16;;;-2.25
61703;BMP280;47622;47.726;3.298;2023-02-28T04:43:26;99737.03;;;-2.32
61703;BMP280;47622;47.726;3.298;2023-02-28T04:45:52;99730.69;;;-2.43
61703;BMP280;47622;47.726;3.298;2023-02-28T04:48:17;99740.38;;;-2.45
61703;BMP280;47622;47.726;3.298;2023-02-28T04:50:43;99735.19;;;-2.58
61703;BMP280;47622;47.726;3.298;2023-02-28T04:53:08;99732.84;;;-2.46
61703;BMP280;47622;47.726;3.298;2023-02-28T04:55:34;99733.84;;;-2.47
61703;BMP280;47622;47.726;3.298;2023-02-28T04:58:00;99729.50;;;-2.47
61703;BMP280;47622;47.726;3.298;2023-02-28T05:00:25;99741.72;;;-2.49
61703;BMP280;47622;47.726;3.298;2023-02-28T05:02:51;99734.19;;;-2.57
61703;BMP280;47622;47.726;3.298;2023-02-28T05:05:17;99739.50;;;-2.58
61703;BMP280;47622;47.726;3.298;2023-02-28T05:07:44;99736.84;;;-2.72
61703;BMP280;47622;47.726;3.298;2023-02-28T05:10:10;99741.03;;;-2.71
61703;BMP280;47622;47.726;3.298;2023-02-28T05:12:36;99729.56;;;-2.68
61703;BMP280;47622;47.726;3.298;2023-02-28T05:15:03;99739.63;;;-2.73
61703;BMP280;47622;47.726;3.298;2023-02-28T05:17:30;99746.78;;;-2.62
61703;BMP280;47622;47.726;3.298;2023-02-28T05:19:56;99743.59;;;-2.71
61703;BMP280;47622;47.726;3.298;2023-02-28T05:22:21;99757.78;;;-2.68
61703;BMP280;47622;47.726;3.298;2023-02-28T05:24:47;99750.66;;;-2.73
61703;BMP280;47622;47.726;3.298;2023-02-28T05:27:13;99754.19;;;-2.80
61703;BMP280;47622;47.726;3.298;2023-02-28T05:29:38;99758.50;;;-2.88
61703;BMP280;47622;47.726;3.298;2023-02-28T05:32:09;99760.91;;;-2.79
61703;BMP280;47622;47.726;3.298;2023-02-28T05:34:39;99766.03;;;-2.79
61703;BMP280;47622;47.726;3.298;2023-02-28T05:37:05;99765.66;;;-2.76
61703;BMP280;47622;47.726;3.298;2023-02-28T05:39:32;99764.47;;;-2.74
61703;BMP280;47622;47.726;3.298;2023-02-28T05:41:58;99770.03;;;-2.70
61703;BMP280;47622;47.726;3.298;2023-02-28T05:44:24;99770.78;;;-2.76
61703;BMP280;47622;47.726;3.298;2023-02-28T05:46:50;99766.41;;;-2.82
61703;BMP280;47622;47.726;3.298;2023-02-28T05:49:15;99770.78;;;-2.76
61703;BMP280;47622;47.726;3.298;2023-02-28T05:51:41;99772.75;;;-2.78
61703;BMP280;47622;47.726;3.298;2023-02-28T05:54:07;99779.06;;;-2.81
61703;BMP280;47622;47.726;3.298;2023-02-28T05:56:33;99772.72;;;-2.85
61703;BMP280;47622;47.726;3.298;2023-02-28T05:59:00;99773.28;;;-2.90
61703;BMP280;47622;47.726;3.298;2023-02-28T06:01:38;99776.34;;;-3.01
61703;BMP280;47622;47.726;3.298;2023-02-28T06:04:06;99776.94;;;-2.99
61703;BMP280;47622;47.726;3.298;2023-02-28T06:06:32;99780.91;;;-2.96
61703;BMP280;47622;47.726;3.298;2023-02-28T06:09:00;99783.41;;;-2.81
61703;BMP280;47622;47.726;3.298;2023-02-28T06:11:26;99769.91;;;-2.90
61703;BMP280;47622;47.726;3.298;2023-02-28T06:13:56;99785.31;;;-2.90
61703;BMP280;47622;47.726;3.298;2023-02-28T06:16:23;99777.28;;;-2.80
61703;BMP280;47622;47.726;3.298;2023-02-28T06:18:49;99778.91;;;-3.01
61703;BMP280;47622;47.726;3.298;2023-02-28T06:21:14;99771.44;;;-2.96
61703;BMP280;47622;47.726;3.298;2023-02-28T06:23:41;99779.50;;;-2.99
61703;BMP280;47622;47.726;3.298;2023-02-28T06:26:07;99773.78;;;-3.01
61703;BMP280;47622;47.726;3.298;2023-02-28T06:28:32;99783.28;;;-2.95
61703;BMP280;47622;47.726;3.298;2023-02-28T06:30:58;99784.25;;;-2.96
61703;BMP280;47622;47.726;3.298;2023-02-28T06:33:23;99788.78;;;-2.98
61703;BMP280;47622;47.726;3.298;2023-02-28T06:35:51;99795.13;;;-2.94
61703;BMP280;47622;47.726;3.298;2023-02-28T06:38:17;99791.72;;;-2.73
61703;BMP280;47622;47.726;3.298;2023-02-28T06:40:43;99791.66;;;-2.86
61703;BMP280;47622;47.726;3.298;2023-02-28T06:43:10;99810.22;;;-2.77
61703;BMP280;47622;47.726;3.298;2023-02-28T06:45:42;99796.44;;;-2.76
61703;BMP280;47622;47.726;3.298;2023-02-28T06:48:08;99799.31;;;-2.58
61703;BMP280;47622;47.726;3.298;2023-02-28T06:50:34;99808.06;;;-2.46
61703;BMP280;47622;47.726;3.298;2023-02-28T06:52:59;99803.06;;;-2.26
61703;BMP280;47622;47.726;3.298;2023-02-28T06:55:25;99805.91;;;-2.08
61703;BMP280;47622;47.726;3.298;2023-02-28T06:57:51;99804.91;;;-2.00
61703;BMP280;47622;47.726;3.298;2023-02-28T07:00:17;99803.66;;;-1.56
61703;BMP280;47622;47.726;3.298;2023-02-28T07:02:43;99812.38;;;-1.44
61703;BMP280;47622;47.726;3.298;2023-02-28T07:05:08;99807.44;;;-1.12
61703;BMP280;47622;47.726;3.298;2023-02-28T07:07:34;99814.00;;;-1.16
61703;BMP280;47622;47.726;3.298;2023-02-28T07:10:02;99816.38;;;-1.21
61703;BMP280;47622;47.726;3.298;2023-02-28T07:12:27;99819.91;;;-1.09
61703;BMP280;47622;47.726;3.298;2023-02-28T07:14:53;99815.56;;;-0.95
61703;BMP280;47622;47.726;3.298;2023-02-28T07:17:21;99821.69;;;-1.03
61703;BMP280;47622;47.726;3.298;2023-02-28T07:19:46;99827.81;;;-1.17
61703;BMP280;47622;47.726;3.298;2023-02-28T07:22:12;99808.38;;;-0.80
61703;BMP280;47622;47.726;3.298;2023-02-28T07:24:37;99831.16;;;0.33
61703;BMP280;47622;47.726;3.298;2023-02-28T07:27:03;99814.34;;;0.80
61703;BMP280;47622;47.726;3.298;2023-02-28T07:29:29;99838.19;;;0.75
61703;BMP280;47622;47.726;3.298;2023-02-28T07:31:55;99833.34;;;1.66
61703;BMP280;47622;47.726;3.298;2023-02-28T07:34:21;99838.09;;;2.40
61703;BMP280;47622;47.726;3.298;2023-02-28T07:36:47;99840.81;;;2.46
61703;BMP280;47622;47.726;3.298;2023-02-28T07:39:13;99843.72;;;2.26
61703;BMP280;47622;47.726;3.298;2023-02-28T07:41:38;99841.31;;;1.82
61703;BMP280;47622;47.726;3.298;2023-02-28T07:44:11;99839.66;;;1.70
61703;BMP280;47622;47.726;3.298;2023-02-28T07:46:37;99850.47;;;2.38
61703;BMP280;47622;47.726;3.298;2023-02-28T07:49:03;99841.41;;;1.88
61703;BMP280;47622;47.726;3.298;2023-02-28T07:51:30;99845.38;;;2.20
61703;BMP280;47622;47.726;3.298;2023-02-28T07:53:56;99841.75;;;1.61
61703;BMP280;47622;47.726;3.298;2023-02-28T07:56:21;99846.31;;;1.59
61703;BMP280;47622;47.726;3.298;2023-02-28T07:58:47;99839.59;;;1.58
61703;BMP280;47622;47.726;3.298;2023-02-28T08:01:13;99842.44;;;1.68
61703;BMP280;47622;47.726;3.298;2023-02-28T08:03:39;99838.72;;;1.82
61703;BMP280;47622;47.726;3.298;2023-02-28T08:06:07;99838.91;;;1.81
61703;BMP280;47622;47.726;3.298;2023-02-28T08:08:33;99837.22;;;2.05
61703;BMP280;47622;47.726;3.298;2023-02-28T08:11:00;99837.53;;;2.38
61703;BMP280;47622;47.726;3.298;2023-02-28T08:13:29;99837.97;;;2.35
61703;BMP280;47622;47.726;3.298;2023-02-28T08:15:55;99843.56;;;1.91
61703;BMP280;47622;47.726;3.298;2023-02-28T08:18:22;99834.72;;;1.50
61703;BMP280;47622;47.726;3.298;2023-02-28T08:20:48;99840.72;;;1.80
61703;BMP280;47622;47.726;3.298;2023-02-28T08:23:14;99844.97;;;2.47
61703;BMP280;47622;47.726;3.298;2023-02-28T08:25:39;99831.63;;;2.73
61703;BMP280;47622;47.726;3.298;2023-02-28T08:28:05;99838.38;;;3.09
61703;BMP280;47622;47.726;3.298;2023-02-28T08:30:31;99839.03;;;3.16
61703;BMP280;47622;47.726;3.298;2023-02-28T08:32:57;99826.81;;;3.29
61703;BMP280;47622;47.726;3.298;2023-02-28T08:35:22;99842.25;;;3.75
61703;BMP280;47622;47.726;3.298;2023-02-28T08:37:48;99850.59;;;4.23
61703;BMP280;47622;47.726;3.298;2023-02-28T08:40:15;99848.44;;;4.03
61703;BMP280;47622;47.726;3.298;2023-02-28T08:42:47;99845.00;;;4.14
61703;BMP280;47622;47.726;3.298;2023-02-28T08:45:14;99832.28;;;3.56
61703;BMP280;47622;47.726;3.298;2023-02-28T08:47:40;99837.31;;;4.36
61703;BMP280;47622;47.726;3.298;2023-02-28T08:50:07;99844.53;;;4.00
61703;BMP280;47622;47.726;3.298;2023-02-28T08:52:33;99845.94;;;3.91
61703;BMP280;47622;47.726;3.298;2023-02-28T08:54:58;99855.22;;;2.65
61703;BMP280;47622;47.726;3.298;2023-02-28T08:57:24;99852.41;;;2.55
61703;BMP280;47622;47.726;3.298;2023-02-28T08:59:52;99853.53;;;3.29
61703;BMP280;47622;47.726;3.298;2023-02-28T09:02:17;99849.06;;;3.93
61703;BMP280;47622;47.726;3.298;2023-02-28T09:04:43;99843.56;;;3.90
61703;BMP280;47622;47.726;3.298;2023-02-28T09:07:11;99852.47;;;4.78
61703;BMP280;47622;47.726;3.298;2023-02-28T09:09:37;99847.38;;;4.49
61703;BMP280;47622;47.726;3.298;2023-02-28T09:12:03;99856.81;;;4.72
61703;BMP280;47622;47.726;3.298;2023-02-28T09:14:28;99864.13;;;5.14
61703;BMP280;47622;47.726;3.298;2023-02-28T09:16:54;99852.84;;;6.01
61703;BMP280;47622;47.726;3.298;2023-02-28T09:19:20;99856.38;;;6.17
61703;BMP280;47622;47.726;3.298;2023-02-28T09:21:46;99863.72;;;6.62
61703;BMP280;47622;47.726;3.298;2023-02-28T09:24:11;99866.38;;;7.25
61703;BMP280;47622;47.726;3.298;2023-02-28T09:26:39;99859.78;;;7.07
61703;BMP280;47622;47.726;3.298;2023-02-28T09:29:05;99863.66;;;8.03
61703;BMP280;47622;47.726;3.298;2023-02-28T09:31:32;99877.47;;;8.54
61703;BMP280;47622;47.726;3.298;2023-02-28T09:33:58;99860.50;;;7.75
61703;BMP280;47622;47.726;3.298;2023-02-28T09:36:26;99862.00;;;6.78
61703;BMP280;47622;47.726;3.298;2023-02-28T09:38:53;99855.97;;;5.71
61703;BMP280;47622;47.726;3.298;2023-02-28T09:41:24;99862.28;;;6.81
61703;BMP280;47622;47.726;3.298;2023-02-28T09:43:59;99860.44;;;6.40
61703;BMP280;47622;47.726;3.298;2023-02-28T09:48:54;99854.91;;;5.99
61703;BMP280;47622;47.726;3.298;2023-02-28T09:54:18;99838.91;;;5.58
61703;BMP280;47622;47.726;3.298;2023-02-28T09:56:45;99869.72;;;6.25
61703;BMP280;47622;47.726;3.298;2023-02-28T09:59:37;99852.72;;;7.02
61703;BMP280;47622;47.726;3.298;2023-02-28T10:04:44;99870.97;;;5.91
61703;BMP280;47622;47.726;3.298;2023-02-28T10:07:31;99855.38;;;5.42
61703;BMP280;47622;47.726;3.298;2023-02-28T10:10:04;99846.00;;;5.41
61703;BMP280;47622;47.726;3.298;2023-02-28T10:12:36;99844.66;;;4.78
61703;BMP280;47622;47.726;3.298;2023-02-28T10:15:04;99854.16;;;4.34
61703;BMP280;47622;47.726;3.298;2023-02-28T10:17:38;99846.44;;;4.72
61703;BMP280;47622;47.726;3.298;2023-02-28T10:20:10;99851.47;;;4.28
61703;BMP280;47622;47.726;3.298;2023-02-28T10:22:55;99847.06;;;4.63
61703;BMP280;47622;47.726;3.298;2023-02-28T10:25:28;99845.56;;;5.49
61703;BMP280;47622;47.726;3.298;2023-02-28T10:28:00;99849.06;;;3.93
61703;BMP280;47622;47.726;3.298;2023-02-28T10:30:27;99840.38;;;3.31
61703;BMP280;47622;47.726;3.298;2023-02-28T10:32:53;99850.38;;;3.27
61703;BMP280;47622;47.726;3.298;2023-02-28T10:35:24;99843.59;;;4.23
61703;BMP280;47622;47.726;3.298;2023-02-28T10:37:54;99852.91;;;4.70
61703;BMP280;47622;47.726;3.298;2023-02-28T10:42:58;99843.88;;;5.87
61703;BMP280;47622;47.726;3.298;2023-02-28T10:45:26;99853.41;;;4.88
61703;BMP280;47622;47.726;3.298;2023-02-28T10:47:58;99835.72;;;5.29
61703;BMP280;47622;47.726;3.298;2023-02-28T10:50:29;99842.94;;;5.44
61703;BMP280;47622;47.726;3.298;2023-02-28T10:56:02;99855.00;;;6.89
61703;BMP280;47622;47.726;3.298;2023-02-28T10:58:49;99851.69;;;5.87
61703;BMP280;47622;47.726;3.298;2023-02-28T11:01:33;99835.81;;;4.74
61703;BMP280;47622;47.726;3.298;2023-02-28T11:04:00;99836.94;;;5.43
61703;BMP280;47622;47.726;3.298;2023-02-28T11:06:29;99829.09;;;6.24
61703;BMP280;47622;47.726;3.298;2023-02-28T11:08:58;99836.47;;;7.63
61703;BMP280;47622;47.726;3.298;2023-02-28T11:11:26;99857.09;;;7.64
61703;BMP280;47622;47.726;3.298;2023-02-28T11:13:56;99840.38;;;6.03
61703;BMP280;47622;47.726;3.298;2023-02-28T11:16:32;99836.31;;;5.58
61703;BMP280;47622;47.726;3.298;2023-02-28T11:18:58;99828.94;;;4.84
61703;BMP280;47622;47.726;3.298;2023-02-28T11:21:31;99835.66;;;4.64
61703;BMP280;47622;47.726;3.298;2023-02-28T11:24:32;99839.44;;;4.39
61703;BMP280;47622;47.726;3.298;2023-02-28T11:26:59;99831.50;;;4.29
61703;BMP280;47622;47.726;3.298;2023-02-28T11:29:30;99821.88;;;4.80
61703;BMP280;47622;47.726;3.298;2023-02-28T11:32:12;99823.41;;;3.80
61703;BMP280;47622;47.726;3.298;2023-02-28T11:34:40;99823.91;;;3.37
61703;BMP280;47622;47.726;3.298;2023-02-28T11:37:18;99807.78;;;3.46
61703;BMP280;47622;47.726;3.298;2023-02-28T11:39:45;99820.50;;;3.25
61703;BMP280;47622;47.726;3.298;2023-02-28T11:45:31;99811.00;;;3.02
61703;BMP280;47622;47.726;3.298;2023-02-28T11:48:21;99809.78;;;3.04
61703;BMP280;47622;47.726;3.298;2023-02-28T11:53:22;99803.56;;;3.17
61703;BMP280;47622;47.726;3.298;2023-02-28T11:56:03;99811.44;;;3.22
61703;BMP280;47622;47.726;3.298;2023-02-28T11:59:00;99817.06;;;3.19
61703;BMP280;47622;47.726;3.298;2023-02-28T12:01:56;99821.56;;;2.65
61703;BMP280;47622;47.726;3.298;2023-02-28T12:05:10;99796.16;;;2.85
61703;BMP280;47622;47.726;3.298;2023-02-28T12:07:55;99801.75;;;3.06
61703;BMP280;47622;47.726;3.298;2023-02-28T12:10:30;99798.09;;;2.90
61703;BMP280;47622;47.726;3.298;2023-02-28T12:20:58;99783.66;;;2.94
61703;BMP280;47622;47.726;3.298;2023-02-28T12:23:40;99784.66;;;3.05
61703;BMP280;47622;47.726;3.298;2023-02-28T12:28:59;99783.28;;;3.14
61703;BMP280;47622;47.726;3.298;2023-02-28T12:31:29;99783.53;;;3.01
61703;BMP280;47622;47.726;3.298;2023-02-28T12:34:10;99779.13;;;3.13
61703;BMP280;47622;47.726;3.298;2023-02-28T12:36:37;99775.00;;;3.29
61703;BMP280;47622;47.726;3.298;2023-02-28T12:39:12;99775.25;;;3.56
61703;BMP280;47622;47.726;3.298;2023-02-28T12:41:45;99770.91;;;3.16
61703;BMP280;47622;47.726;3.298;2023-02-28T12:44:26;99774.53;;;2.91
61703;BMP280;47622;47.726;3.298;2023-02-28T12:46:56;99770.56;;;3.01
61703;BMP280;47622;47.726;3.298;2023-02-28T12:52:17;99762.38;;;2.80
61703;BMP280;47622;47.726;3.298;2023-02-28T12:55:13;99757.69;;;2.77
61703;BMP280;47622;47.726;3.298;2023-02-28T12:58:30;99765.13;;;2.62
61703;BMP280;47622;47.726;3.298;2023-02-28T13:00:36;99763.88;;;2.64
61703;BMP280;47622;47.726;3.298;2023-02-28T13:08:39;99754.94;;;2.95
61703;BMP280;47622;47.726;3.298;2023-02-28T13:11:53;99759.91;;;2.85
61703;BMP280;47622;47.726;3.298;2023-02-28T13:14:25;99757.78;;;2.82
61703;BMP280;47622;47.726;3.298;2023-02-28T13:16:54;99754.06;;;2.78
61703;BMP280;47622;47.726;3.298;2023-02-28T13:19:22;99756.44;;;2.80
61703;BMP280;47622;47.726;3.298;2023-02-28T13:21:50;99755.84;;;2.66
61703;BMP280;47622;47.726;3.298;2023-02-28T13:24:41;99762.38;;;2.80
61703;BMP280;47622;47.726;3.298;2023-02-28T13:29:36;99762.16;;;2.70
61703;BMP280;47622;47.726;3.298;2023-02-28T13:39:53;99755.44;;;2.46
61703;BMP280;47622;47.726;3.298;2023-02-28T13:42:34;99754.41;;;2.47
61703;BMP280;47622;47.726;3.298;2023-02-28T13:47:45;99751.69;;;2.88
61703;BMP280;47622;47.726;3.298;2023-02-28T14:06:53;99763.56;;;2.61
61703;BMP280;47622;47.726;3.298;2023-02-28T14:09:30;99764.53;;;2.72
61703;BMP280;47622;47.726;3.298;2023-02-28T14:11:57;99764.75;;;2.70
61703;BMP280;47622;47.726;3.298;2023-02-28T14:17:14;99768.16;;;2.59
61703;BMP280;47622;47.726;3.298;2023-02-28T14:19:44;99764.66;;;2.42
61703;BMP280;47622;47.726;3.298;2023-02-28T14:32:59;99780.47;;;2.22
61703;BMP280;47622;47.726;3.298;2023-02-28T14:35:35;99768.03;;;2.30
61703;BMP280;47622;47.726;3.298;2023-02-28T14:38:06;99768.69;;;2.37
61703;BMP280;47622;47.726;3.298;2023-02-28T14:40:38;99775.44;;;2.38
61703;BMP280;47622;47.726;3.298;2023-02-28T14:43:16;99771.94;;;2.33
61703;BMP280;47622;47.726;3.298;2023-02-28T14:45:46;99770.97;;;2.46
61703;BMP280;47622;47.726;3.298;2023-02-28T14:48:15;99786.13;;;2.30
61703;BMP280;47622;47.726;3.298;2023-02-28T14:50:48;99778.56;;;2.17
61703;BMP280;47622;47.726;3.298;2023-02-28T14:53:20;99781.50;;;2.32
61703;BMP280;47622;47.726;3.298;2023-02-28T14:55:47;99776.88;;;2.23
61703;BMP280;47622;47.726;3.298;2023-02-28T14:58:27;99778.69;;;2.22
61703;BMP280;47622;47.726;3.298;2023-02-28T15:00:56;99776.31;;;2.32
61703;BMP280;47622;47.726;3.298;2023-02-28T15:03:23;99772.41;;;2.30
61703;BMP280;47622;47.726;3.298;2023-02-28T15:06:16;99777.88;;;2.33
61703;BMP280;47622;47.726;3.298;2023-02-28T15:08:44;99768.22;;;2.17
61703;BMP280;47622;47.726;3.298;2023-02-28T15:11:16;99782.16;;;2.16
61703;BMP280;47622;47.726;3.298;2023-02-28T15:13:52;99780.59;;;2.15
61703;BMP280;47622;47.726;3.298;2023-02-28T15:16:22;99775.84;;;2.12
61703;BMP280;47622;47.726;3.298;2023-02-28T15:18:54;99779.28;;;2.24
61703;BMP280;47622;47.726;3.298;2023-02-28T15:21:33;99768.66;;;2.14
61703;BMP280;47622;47.726;3.298;2023-02-28T15:26:39;99770.13;;;2.10
61703;BMP280;47622;47.726;3.298;2023-02-28T15:29:10;99773.50;;;2.22
61703;BMP280;47622;47.726;3.298;2023-02-28T15:31:44;99761.94;;;2.36
61703;BMP280;47622;47.726;3.298;2023-02-28T15:34:20;99775.31;;;2.33
61703;BMP280;47622;47.726;3.298;2023-02-28T15:36:47;99765.75;;;2.22
61703;BMP280;47622;47.726;3.298;2023-02-28T15:39:25;99771.50;;;2.24
61703;BMP280;47622;47.726;3.298;2023-02-28T15:41:54;99769.56;;;2.08
61703;BMP280;47622;47.726;3.298;2023-02-28T15:44:34;99768.41;;;2.04
61703;BMP280;47622;47.726;3.298;2023-02-28T15:47:14;99769.97;;;2.05
61703;BMP280;47622;47.726;3.298;2023-02-28T15:52:21;99767.88;;;2.13
61703;BMP280;47622;47.726;3.298;2023-02-28T15:54:48;99766.75;;;2.09
61703;BMP280;47622;47.726;3.298;2023-02-28T15:57:25;99775.72;;;2.07
61703;BMP280;47622;47.726;3.298;2023-02-28T15:59:54;99771.69;;;2.11
61703;BMP280;47622;47.726;3.298;2023-02-28T16:02:32;99780.06;;;1.95
61703;BMP280;47622;47.726;3.298;2023-02-28T16:05:12;99782.09;;;1.93
61703;BMP280;47622;47.726;3.298;2023-02-28T16:07:42;99785.66;;;1.92
61703;BMP280;47622;47.726;3.298;2023-02-28T16:10:11;99788.97;;;1.99
61703;BMP280;47622;47.726;3.298;2023-02-28T16:12:38;99784.34;;;2.01
61703;BMP280;47622;47.726;3.298;2023-02-28T16:15:31;99789.84;;;1.93
61703;BMP280;47622;47.726;3.298;2023-02-28T16:18:00;99775.31;;;1.92
61703;BMP280;47622;47.726;3.298;2023-02-28T16:20:30;99787.94;;;2.00
61703;BMP280;47622;47.726;3.298;2023-02-28T16:22:56;99785.59;;;1.98
61703;BMP280;47622;47.726;3.298;2023-02-28T16:25:48;99780.94;;;1.89
61703;BMP280;47622;47.726;3.298;2023-02-28T16:30:42;99775.31;;;1.92
61703;BMP280;47622;47.726;3.298;2023-02-28T16:33:08;99789.19;;;1.97
61703;BMP280;47622;47.726;3.298;2023-02-28T16:35:34;99780.16;;;1.88
61703;BMP280;47622;47.726;3.298;2023-02-28T16:38:00;99785.59;;;1.87
61703;BMP280;47622;47.726;3.298;2023-02-28T16:40:26;99789.72;;;1.88
61703;BMP280;47622;47.726;3.298;2023-02-28T16:42:57;99789.81;;;1.81